Time;durP1;ratioP1;P1;durP2;ratioP2;P2;SDS_P1;SDS_P2;PMS_P1;PMS_P2;Temp;Humidity;BMP_temperature;BMP_pressure;BME280_temperature;BME280_humidity;BME280_pressure;Samples;Min_cycle;Max_cycle;Signal;HPM_P1;HPM_P2
2021/05/16 00:01:16;;;;;;;1.60;0.93;;;;;;;8.29;78.80;98031.34;5027617;28;20081;-79
2021/05/16 00:03:42;;;;;;;1.63;0.90;;;;;;;8.21;78.79;98021.50;5028500;28;20053;-79
2021/05/16 00:06:09;;;;;;;1.75;0.80;;;;;;;8.25;78.57;98033.59;5013956;28;20121;-79
2021/05/16 00:08:35;;;;;;;3.42;1.00;;;;;;;8.28;78.92;98032.34;5020462;28;20045;-80
2021/05/16 00:11:03;;;;;;;2.78;0.85;;;;;;;8.32;77.99;98029.09;5011036;28;20054;-80
2021/05/16 00:13:29;;;;;;;6.32;0.85;;;;;;;8.26;78.22;98027.13;5013050;28;20057;-80
2021/05/16 00:15:56;;;;;;;1.92;1.20;;;;;;;8.32;77.97;98034.50;5028866;28;20076;-80
2021/05/16 00:18:22;;;;;;;4.88;0.93;;;;;;;8.41;77.04;98042.47;5032073;28;20053;-79
2021/05/16 00:20:49;;;;;;;4.13;0.90;;;;;;;8.44;77.82;98031.25;5018221;28;20049;-79
2021/05/16 00:23:15;;;;;;;3.90;0.85;;;;;;;8.53;77.57;98031.94;5016266;28;20548;-79
2021/05/16 00:25:44;;;;;;;4.80;1.15;;;;;;;8.48;76.57;98025.25;5019595;28;20053;-80
2021/05/16 00:28:11;;;;;;;2.65;0.88;;;;;;;8.52;76.44;98033.81;5055849;28;20052;-79
2021/05/16 00:30:38;;;;;;;3.45;1.00;;;;;;;8.45;76.35;98028.34;5033674;28;20049;-79
2021/05/16 00:33:05;;;;;;;4.97;0.90;;;;;;;8.63;75.94;98030.53;5043219;28;20045;-80
2021/05/16 00:35:33;;;;;;;0.85;0.80;;;;;;;8.71;76.28;98034.94;5026458;28;20053;-79
2021/05/16 00:38:02;;;;;;;3.25;1.23;;;;;;;8.71;75.42;98026.00;5021029;28;20056;-80
2021/05/16 00:40:31;;;;;;;2.40;0.60;;;;;;;8.83;76.03;98037.94;5040430;28;20054;-79
2021/05/16 00:42:57;;;;;;;2.08;0.80;;;;;;;8.80;75.26;98030.19;5018500;28;20049;-79
2021/05/16 00:45:26;;;;;;;1.60;0.80;;;;;;;8.83;75.24;98041.47;5021132;28;20053;-79
2021/05/16 00:47:54;;;;;;;1.35;0.82;;;;;;;8.83;74.73;98036.03;5029349;28;20076;-79
2021/05/16 00:50:22;;;;;;;3.55;0.70;;;;;;;8.92;75.51;98038.59;5031709;28;20077;-80
2021/05/16 00:52:49;;;;;;;1.08;0.77;;;;;;;8.93;74.52;98043.00;5031157;28;20500;-79
2021/05/16 00:55:16;;;;;;;4.15;1.13;;;;;;;8.92;75.00;98035.88;5035462;28;20041;-79
2021/05/16 00:57:42;;;;;;;1.35;0.70;;;;;;;8.95;74.65;98033.59;5021481;28;20429;-80
2021/05/16 01:00:12;;;;;;;1.75;0.70;;;;;;;8.96;74.93;98032.56;5034706;28;20057;-79
2021/05/16 01:02:39;;;;;;;2.88;0.77;;;;;;;9.03;74.14;98027.16;5036690;28;20050;-79
2021/05/16 01:05:08;;;;;;;1.65;0.93;;;;;;;8.99;74.24;98021.31;5035962;28;20090;-79
2021/05/16 01:07:35;;;;;;;3.00;0.95;;;;;;;9.07;73.99;98024.91;5043281;28;20443;-79
2021/05/16 01:10:02;;;;;;;2.33;0.90;;;;;;;9.14;75.18;98018.44;5034190;28;20068;-79
2021/05/16 01:12:32;;;;;;;4.70;1.00;;;;;;;9.08;74.11;98023.84;5040372;28;20197;-79
2021/05/16 01:15:03;;;;;;;1.42;0.70;;;;;;;9.13;74.50;98024.06;5025627;28;20049;-79
2021/05/16 01:17:29;;;;;;;1.38;0.80;;;;;;;9.13;74.80;98030.31;5033349;28;20128;-79
2021/05/16 01:19:57;;;;;;;3.45;0.80;;;;;;;9.19;74.44;98020.56;5033391;28;20045;-79
2021/05/16 01:22:24;;;;;;;4.55;0.93;;;;;;;9.11;74.31;98021.56;5031768;28;20049;-79
2021/05/16 01:24:50;;;;;;;2.92;1.00;;;;;;;9.09;74.55;98025.53;5034898;28;20616;-79
2021/05/16 01:27:17;;;;;;;3.13;0.80;;;;;;;9.13;75.24;98033.03;5047709;28;20045;-80
2021/05/16 01:29:44;;;;;;;1.95;0.60;;;;;;;9.11;75.16;98029.72;5047362;28;20045;-79
2021/05/16 01:32:11;;;;;;;1.88;0.70;;;;;;;9.07;76.54;98036.56;5036655;28;20552;-80
2021/05/16 01:34:39;;;;;;;2.92;0.90;;;;;;;9.10;77.10;98033.44;5049289;28;20052;-79
2021/05/16 01:37:06;;;;;;;1.65;0.93;;;;;;;9.06;77.91;98025.94;5036442;28;20056;-79
2021/05/16 01:39:33;;;;;;;5.53;0.80;;;;;;;9.06;78.93;98028.63;5037407;28;20079;-79
2021/05/16 01:42:00;;;;;;;1.55;0.80;;;;;;;8.99;78.59;98023.19;5034439;28;20057;-79
2021/05/16 01:44:26;;;;;;;3.58;1.02;;;;;;;9.03;79.33;98024.44;5032992;28;20553;-79
2021/05/16 01:46:52;;;;;;;1.75;0.60;;;;;;;8.97;79.73;98019.84;5052533;28;20518;-79
2021/05/16 01:49:19;;;;;;;2.80;0.90;;;;;;;8.87;78.99;98003.97;5038262;28;20049;-79
2021/05/16 01:51:45;;;;;;;3.03;0.70;;;;;;;9.00;79.78;98019.44;5052053;28;20087;-79
2021/05/16 01:54:11;;;;;;;2.90;0.90;;;;;;;8.98;78.96;98019.63;5042045;28;20052;-79
2021/05/16 01:56:39;;;;;;;3.35;1.25;;;;;;;9.03;79.26;98022.59;5037537;28;20053;-79
2021/05/16 01:59:05;;;;;;;4.30;1.48;;;;;;;9.03;79.04;98024.44;5041048;28;20103;-79
2021/05/16 02:01:32;;;;;;;2.67;1.15;;;;;;;9.01;79.80;98021.94;5031357;28;20049;-79
2021/05/16 02:03:59;;;;;;;2.38;0.93;;;;;;;8.99;80.29;98020.50;5033255;28;20106;-79
2021/05/16 02:06:26;;;;;;;3.13;0.85;;;;;;;8.96;78.99;98010.06;5032098;28;20110;-79
2021/05/16 02:08:52;;;;;;;1.45;0.80;;;;;;;9.02;80.14;98010.06;5037894;28;20060;-79
2021/05/16 02:11:18;;;;;;;2.28;0.98;;;;;;;9.06;79.13;98013.19;5040997;28;20049;-79
2021/05/16 02:13:46;;;;;;;3.35;1.00;;;;;;;9.04;79.14;98016.09;5035414;28;20053;-80
2021/05/16 02:16:13;;;;;;;2.47;0.82;;;;;;;9.08;78.90;98016.56;5041516;28;20049;-80
2021/05/16 02:18:40;;;;;;;3.97;1.05;;;;;;;8.98;78.63;97991.69;5031715;28;20041;-79
2021/05/16 02:21:10;;;;;;;2.17;0.80;;;;;;;9.16;78.08;98000.09;5032375;28;20502;-80
2021/05/16 02:23:39;;;;;;;6.38;1.00;;;;;;;9.10;78.39;97990.06;5031377;28;20120;-80
2021/05/16 02:26:05;;;;;;;2.72;0.80;;;;;;;9.11;78.09;97996.31;5041016;28;20500;-80
2021/05/16 02:28:31;;;;;;;2.88;1.00;;;;;;;9.06;78.94;97998.81;5040730;28;20407;-80
2021/05/16 02:30:59;;;;;;;2.95;1.05;;;;;;;9.17;78.59;97996.34;5033178;28;20052;-80
2021/05/16 02:33:25;;;;;;;2.80;0.88;;;;;;;9.17;78.38;97987.38;5036558;28;20516;-79
2021/05/16 02:35:51;;;;;;;4.43;1.13;;;;;;;9.09;79.08;97992.97;5031978;28;20049;-79
2021/05/16 02:38:18;;;;;;;3.20;1.05;;;;;;;9.12;78.60;97989.88;5044115;28;20064;-79
2021/05/16 02:40:44;;;;;;;1.38;1.02;;;;;;;9.08;78.86;97996.72;5047117;28;20045;-79
2021/05/16 02:43:10;;;;;;;2.03;0.90;;;;;;;9.12;78.90;98000.72;5038626;28;20050;-79
2021/05/16 02:45:36;;;;;;;5.72;1.10;;;;;;;9.13;78.70;98005.94;5044643;28;20537;-79
2021/05/16 02:48:05;;;;;;;2.47;1.10;;;;;;;9.09;78.76;97999.22;5034116;28;20042;-79
2021/05/16 02:50:32;;;;;;;5.10;1.02;;;;;;;9.17;79.47;98009.91;5011665;28;20057;-79
2021/05/16 02:52:58;;;;;;;3.47;1.25;;;;;;;9.09;79.17;97993.81;5027140;28;20089;-79
2021/05/16 02:55:24;;;;;;;2.75;0.85;;;;;;;9.17;80.59;98009.91;5053233;28;20051;-79
2021/05/16 02:57:51;;;;;;;4.10;1.05;;;;;;;8.98;81.24;98002.53;5045774;28;20440;-79
2021/05/16 03:00:26;;;;;;;11.32;1.10;;;;;;;9.01;81.91;98004.84;5048354;28;20048;-79
2021/05/16 03:03:25;;;;;;;3.30;1.30;;;;;;;9.04;82.45;98012.56;5027212;28;20052;-79
2021/05/16 03:05:54;;;;;;;1.77;1.15;;;;;;;8.95;82.90;98011.91;5048659;28;20131;-79
2021/05/16 03:08:21;;;;;;;5.00;1.20;;;;;;;9.14;82.99;98012.22;5042568;28;20053;-79
2021/05/16 03:10:47;;;;;;;4.00;1.10;;;;;;;9.03;83.38;98009.03;5046725;28;20492;-79
2021/05/16 03:13:13;;;;;;;2.03;1.05;;;;;;;8.96;84.59;98016.31;5043880;28;20069;-79
2021/05/16 03:15:40;;;;;;;1.48;0.90;;;;;;;8.89;84.08;98010.00;5038518;28;20136;-79
2021/05/16 03:18:06;;;;;;;3.08;1.35;;;;;;;8.85;83.99;98000.59;5045473;28;20528;-79
2021/05/16 03:20:33;;;;;;;3.13;1.10;;;;;;;8.93;83.95;98016.72;5039435;28;20065;-79
2021/05/16 03:22:59;;;;;;;2.80;1.17;;;;;;;8.94;83.28;98003.97;5033218;28;20054;-79
2021/05/16 03:25:25;;;;;;;1.73;1.52;;;;;;;8.86;84.70;98010.41;5033030;28;20520;-79
2021/05/16 03:27:52;;;;;;;5.18;1.17;;;;;;;8.91;84.00;98007.94;5032865;28;20057;-79
2021/05/16 03:30:19;;;;;;;3.90;1.20;;;;;;;8.97;84.57;98009.00;5033197;28;20062;-80
2021/05/16 03:32:45;;;;;;;2.55;1.23;;;;;;;8.85;84.91;97981.63;5041349;28;20070;-80
2021/05/16 03:35:13;;;;;;;4.55;1.30;;;;;;;8.92;85.47;98001.47;5038458;28;20168;-79
2021/05/16 03:37:40;;;;;;;2.30;1.13;;;;;;;8.85;85.89;97992.47;5033460;28;20061;-79
2021/05/16 03:40:08;;;;;;;0.93;0.85;;;;;;;8.83;86.05;98000.00;5037526;28;20119;-79
2021/05/16 03:42:35;;;;;;;1.63;0.85;;;;;;;8.78;86.61;97992.47;5037121;28;20079;-79
2021/05/16 03:45:01;;;;;;;1.65;1.00;;;;;;;8.88;86.07;98000.19;5035628;28;20416;-79
2021/05/16 03:47:27;;;;;;;2.67;0.90;;;;;;;8.84;86.24;97996.25;5033083;28;20115;-79
2021/05/16 03:49:53;;;;;;;2.10;1.08;;;;;;;8.84;86.64;97999.78;5044876;28;20045;-80
2021/05/16 03:52:20;;;;;;;2.35;1.17;;;;;;;8.73;87.08;97992.25;5037587;28;20049;-79
2021/05/16 03:54:48;;;;;;;5.22;1.35;;;;;;;8.85;86.41;97998.75;5033446;28;20053;-79
2021/05/16 03:57:14;;;;;;;2.83;1.13;;;;;;;8.68;87.04;97978.44;5056777;28;20057;-79
2021/05/16 03:59:44;;;;;;;4.25;1.25;;;;;;;8.89;86.08;97999.16;5049058;28;20060;-79
2021/05/16 04:02:11;;;;;;;1.13;0.90;;;;;;;8.89;86.36;97991.03;5045917;28;20071;-79
2021/05/16 04:04:38;;;;;;;2.67;1.27;;;;;;;8.86;86.74;97988.75;5055975;28;20052;-79
2021/05/16 04:07:04;;;;;;;2.90;1.05;;;;;;;8.83;86.97;97992.69;5046024;28;20049;-79
2021/05/16 04:09:31;;;;;;;1.77;1.10;;;;;;;8.83;87.78;98000.00;5056023;28;20049;-79
2021/05/16 04:11:58;;;;;;;6.32;1.20;;;;;;;8.88;87.09;97999.38;5040410;28;20057;-79
2021/05/16 04:14:25;;;;;;;2.80;1.00;;;;;;;8.88;87.22;97994.78;5047652;28;20552;-79
2021/05/16 04:16:51;;;;;;;6.22;1.50;;;;;;;9.01;87.14;98005.69;5040231;28;20128;-79
2021/05/16 04:19:18;;;;;;;3.28;1.13;;;;;;;9.00;86.75;98003.16;5048750;28;20484;-80
2021/05/16 04:21:44;;;;;;;3.88;1.40;;;;;;;8.99;86.42;97996.09;5056439;28;20049;-79
2021/05/16 04:24:21;;;;;;;2.88;1.20;;;;;;;9.01;87.14;98004.84;5049513;28;20049;-79
2021/05/16 04:26:47;;;;;;;2.63;1.40;;;;;;;8.87;86.31;97998.56;5036537;28;20053;-79
2021/05/16 04:29:15;;;;;;;3.92;1.85;;;;;;;9.08;86.59;98015.69;5036329;28;20092;-78
2021/05/16 04:31:44;;;;;;;3.53;1.17;;;;;;;8.99;85.61;98005.06;5054082;28;20041;-78
2021/05/16 04:34:10;;;;;;;7.82;1.23;;;;;;;8.98;85.28;98007.97;5045314;28;20404;-78
2021/05/16 04:36:36;;;;;;;5.93;1.10;;;;;;;8.98;86.75;98005.25;5047229;28;20049;-78
2021/05/16 04:39:04;;;;;;;3.40;1.20;;;;;;;8.86;86.21;97997.69;5055530;28;20056;-79
2021/05/16 04:41:32;;;;;;;1.13;0.77;;;;;;;8.93;86.45;97991.50;5048135;28;20095;-79
2021/05/16 04:43:59;;;;;;;2.13;1.00;;;;;;;8.94;87.02;97991.28;5035314;28;20057;-79
2021/05/16 04:46:26;;;;;;;4.32;0.95;;;;;;;8.91;86.42;97993.53;5038286;28;20405;-79
2021/05/16 04:48:55;;;;;;;4.80;1.35;;;;;;;8.88;87.33;97985.81;5035928;28;20061;-79
2021/05/16 04:51:23;;;;;;;4.28;1.30;;;;;;;8.89;87.14;97987.50;5040801;28;20044;-79
2021/05/16 04:53:52;;;;;;;3.67;1.30;;;;;;;9.01;87.22;97999.44;5036333;28;20092;-80
2021/05/16 04:56:19;;;;;;;1.90;1.13;;;;;;;9.06;86.92;98001.53;5039281;28;20045;-79
2021/05/16 04:58:45;;;;;;;6.35;1.35;;;;;;;9.11;87.14;98013.44;5051258;28;20389;-80
2021/05/16 05:01:12;;;;;;;2.60;0.90;;;;;;;9.19;86.76;98004.28;5037163;28;20080;-80
2021/05/16 05:03:39;;;;;;;4.00;1.05;;;;;;;9.21;87.29;98004.91;5037324;28;20064;-79
2021/05/16 05:06:06;;;;;;;3.65;1.38;;;;;;;9.19;86.68;98005.09;5051366;28;20481;-79
2021/05/16 05:08:32;;;;;;;2.13;1.25;;;;;;;9.21;87.03;97994.06;5041320;28;20067;-80
2021/05/16 05:11:00;;;;;;;2.25;1.30;;;;;;;9.24;86.97;98000.94;5035475;28;20050;-80
2021/05/16 05:13:26;;;;;;;2.40;1.08;;;;;;;9.37;86.09;98001.00;5034894;28;20651;-80
2021/05/16 05:15:52;;;;;;;4.78;1.40;;;;;;;9.42;86.21;98006.63;5046001;28;20045;-80
2021/05/16 05:18:21;;;;;;;3.97;1.10;;;;;;;9.52;85.63;98001.63;5035284;28;20053;-80
2021/05/16 05:20:49;;;;;;;3.55;1.10;;;;;;;9.47;85.52;98001.44;5046647;28;20053;-79
2021/05/16 05:23:15;;;;;;;5.30;1.42;;;;;;;9.59;85.28;98015.22;5035178;28;20049;-78
2021/05/16 05:25:41;;;;;;;4.72;1.33;;;;;;;9.68;84.25;98011.25;5051000;28;20396;-79
2021/05/16 05:28:08;;;;;;;2.20;1.20;;;;;;;9.71;84.66;98010.84;5054880;28;20197;-78
2021/05/16 05:30:34;;;;;;;6.32;1.50;;;;;;;9.75;83.71;98000.41;5039782;28;20057;-79
2021/05/16 05:33:00;;;;;;;1.73;0.98;;;;;;;9.92;83.01;98020.66;5052558;28;20091;-81
2021/05/16 05:35:27;;;;;;;5.95;1.42;;;;;;;10.09;83.53;98004.78;5052388;28;20068;-80
2021/05/16 05:37:54;;;;;;;2.80;0.98;;;;;;;10.35;83.44;98013.97;5043127;28;20045;-80
2021/05/16 05:40:20;;;;;;;5.68;1.30;;;;;;;10.38;82.39;97996.41;5040515;28;20379;-80
2021/05/16 05:42:46;;;;;;;4.72;0.90;;;;;;;10.30;81.58;98015.59;5045516;28;20083;-79
2021/05/16 05:45:12;;;;;;;2.67;0.90;;;;;;;10.39;80.17;98006.25;5049264;28;20049;-79
2021/05/16 05:47:41;;;;;;;3.65;1.15;;;;;;;10.49;81.29;98014.78;5040589;28;20049;-81
2021/05/16 05:50:07;;;;;;;2.90;1.02;;;;;;;10.60;79.65;98016.84;5043395;28;20061;-80
2021/05/16 05:52:34;;;;;;;1.95;0.85;;;;;;;10.73;80.06;98009.69;5034421;28;20079;-80
2021/05/16 05:55:01;;;;;;;1.63;1.00;;;;;;;10.59;80.91;98006.19;5037826;28;20041;-80
2021/05/16 05:57:27;;;;;;;2.00;0.70;;;;;;;10.72;80.80;98006.16;5032267;28;20058;-80
2021/05/16 05:59:53;;;;;;;1.38;0.82;;;;;;;10.79;81.47;98020.56;5025664;28;20481;-80
2021/05/16 06:02:20;;;;;;;1.52;0.85;;;;;;;10.79;79.95;98014.28;5034859;28;20485;-80
2021/05/16 06:04:46;;;;;;;1.38;0.70;;;;;;;10.90;81.33;98020.91;5032062;28;20063;-80
2021/05/16 06:07:15;;;;;;;2.83;1.00;;;;;;;10.97;81.34;98009.00;5028896;28;20532;-80
2021/05/16 06:09:41;;;;;;;1.73;0.80;;;;;;;11.10;81.39;98012.69;5021369;28;20500;-79
2021/05/16 06:12:09;;;;;;;1.67;0.90;;;;;;;11.30;80.70;98013.41;5041178;28;20045;-80
2021/05/16 06:14:36;;;;;;;0.90;0.77;;;;;;;11.32;78.30;98007.75;5031745;28;20049;-79
2021/05/16 06:17:03;;;;;;;2.80;1.02;;;;;;;11.37;79.72;98001.69;5042794;28;20049;-79
2021/05/16 06:19:30;;;;;;;0.70;0.70;;;;;;;11.30;80.24;98018.84;5033056;28;20060;-79
2021/05/16 06:21:56;;;;;;;6.72;0.98;;;;;;;11.32;78.77;98024.06;5024268;28;20045;-79
2021/05/16 06:24:23;;;;;;;3.88;0.90;;;;;;;11.02;79.79;98019.22;5037824;28;20046;-78
2021/05/16 06:26:49;;;;;;;3.08;1.27;;;;;;;10.89;79.62;98016.56;5047304;28;20061;-78
2021/05/16 06:29:38;;;;;;;1.20;0.65;;;;;;;10.71;79.79;98018.06;5037107;28;20080;-78
2021/05/16 06:32:08;;;;;;;1.75;0.57;;;;;;;10.78;80.53;98009.91;5026586;28;20049;-78
2021/05/16 06:34:45;;;;;;;;;;;;;;;;;;;;;
2021/05/16 06:37:12;;;;;;;0.52;0.52;;;;;;;11.15;79.29;98030.03;5016030;28;20056;-78
2021/05/16 06:39:38;;;;;;;2.10;0.43;;;;;;;11.12;79.61;98016.03;5038689;28;20103;-79
2021/05/16 06:42:05;;;;;;;1.90;0.70;;;;;;;11.22;77.90;98013.69;5036258;28;20071;-79
2021/05/16 06:44:33;;;;;;;1.08;0.60;;;;;;;11.20;77.11;98018.50;5032226;28;20052;-79
2021/05/16 06:46:59;;;;;;;0.73;0.55;;;;;;;11.39;78.62;98018.63;5043948;28;20497;-79
2021/05/16 06:49:25;;;;;;;1.20;0.60;;;;;;;11.61;76.87;98010.94;5033146;28;20115;-79
2021/05/16 06:51:52;;;;;;;1.73;0.80;;;;;;;11.84;77.44;98032.13;5033652;28;20056;-80
2021/05/16 06:54:18;;;;;;;4.53;0.80;;;;;;;12.13;76.35;98033.38;5015232;28;20108;-79
2021/05/16 06:56:45;;;;;;;2.13;0.80;;;;;;;12.14;75.65;98024.16;5051430;28;20053;-79
2021/05/16 06:59:11;;;;;;;1.90;0.77;;;;;;;12.12;75.76;98009.09;5035197;28;20049;-79
2021/05/16 07:01:39;;;;;;;1.73;1.13;;;;;;;12.18;74.48;98036.28;5039060;28;20489;-79
2021/05/16 07:04:05;;;;;;;1.90;0.57;;;;;;;12.22;75.15;98017.59;5033079;28;20412;-79
2021/05/16 07:06:35;;;;;;;2.95;0.70;;;;;;;12.51;73.74;98028.84;5039091;28;20481;-80
2021/05/16 07:09:02;;;;;;;2.50;0.93;;;;;;;12.86;75.43;98023.66;5031527;28;20065;-79
2021/05/16 07:11:28;;;;;;;1.85;0.80;;;;;;;12.55;72.27;98014.53;5035852;28;20583;-79
2021/05/16 07:13:57;;;;;;;1.73;0.77;;;;;;;12.59;73.31;98014.94;5047910;28;20099;-79
2021/05/16 07:16:23;;;;;;;7.03;0.80;;;;;;;12.25;72.78;98024.50;5033379;28;20054;-80
2021/05/16 07:18:55;;;;;;;4.25;0.68;;;;;;;12.27;71.70;98016.91;5051655;28;20052;-79
2021/05/16 07:21:21;;;;;;;3.47;1.02;;;;;;;12.47;74.21;98031.19;5052217;28;20060;-80
2021/05/16 07:23:48;;;;;;;2.60;0.73;;;;;;;12.48;72.95;98029.31;5052944;28;20056;-80
2021/05/16 07:26:14;;;;;;;0.80;0.70;;;;;;;12.43;73.94;98012.81;5039545;28;20661;-81
2021/05/16 07:28:40;;;;;;;2.67;0.90;;;;;;;12.37;71.55;98028.16;5032961;28;20428;-80
2021/05/16 07:31:06;;;;;;;2.72;0.70;;;;;;;12.21;71.78;98007.78;5037419;28;20053;-79
2021/05/16 07:33:33;;;;;;;1.58;0.63;;;;;;;12.14;71.96;98007.81;5043789;28;20058;-79
2021/05/16 07:36:00;;;;;;;2.00;0.73;;;;;;;12.47;72.36;98016.75;5036404;28;20057;-79
2021/05/16 07:38:38;;;;;;;2.45;0.75;;;;;;;12.64;71.09;98006.91;5043375;28;20649;-79
2021/05/16 07:41:04;;;;;;;3.38;0.60;;;;;;;13.37;69.81;98009.81;5049611;28;20046;-79
2021/05/16 07:43:30;;;;;;;3.80;0.70;;;;;;;14.01;67.67;98006.56;5036289;28;20046;-79
2021/05/16 07:46:02;;;;;;;1.58;0.70;;;;;;;13.87;65.94;98003.22;5052867;28;20091;-79
2021/05/16 07:48:28;;;;;;;4.20;0.98;;;;;;;13.75;67.62;98006.75;5049839;28;20071;-79
2021/05/16 07:50:55;;;;;;;2.22;1.00;;;;;;;13.95;65.68;98013.78;5042649;28;20072;-79
2021/05/16 07:53:23;;;;;;;2.95;0.90;;;;;;;13.89;65.78;97988.22;5044800;28;20052;-79
2021/05/16 07:55:49;;;;;;;2.47;0.88;;;;;;;14.06;65.03;98004.78;5041080;28;20499;-79
2021/05/16 07:58:16;;;;;;;3.58;0.70;;;;;;;13.61;64.44;97988.91;5024347;28;20087;-79
2021/05/16 08:00:47;;;;;;;1.45;0.80;;;;;;;13.37;66.22;97986.09;5052949;28;20049;-78
2021/05/16 08:03:24;;;;;;;2.00;0.70;;;;;;;13.89;64.02;98001.91;5055802;28;20654;-80
2021/05/16 08:05:58;;;;;;;1.35;0.63;;;;;;;13.94;63.35;97995.72;5042260;28;20064;-80
2021/05/16 08:08:27;;;;;;;2.20;0.80;;;;;;;13.77;63.64;97985.47;5036075;28;20045;-79
2021/05/16 08:10:53;;;;;;;2.43;0.70;;;;;;;13.81;65.59;98010.44;5036543;28;20431;-80
2021/05/16 08:13:20;;;;;;;7.43;1.17;;;;;;;13.21;65.88;98006.63;5034507;28;20103;-79
2021/05/16 08:15:46;;;;;;;3.67;0.90;;;;;;;13.00;69.23;98020.78;5028166;28;20100;-79
2021/05/16 08:18:28;;;;;;;9.13;1.48;;;;;;;12.73;71.60;98013.72;5043962;28;20053;-79
2021/05/16 08:20:55;;;;;;;4.38;1.05;;;;;;;12.54;71.34;98020.22;5035183;28;20107;-79
2021/05/16 08:23:21;;;;;;;7.25;0.80;;;;;;;12.45;72.80;98013.41;5053184;28;20106;-79
2021/05/16 08:25:49;;;;;;;1.67;0.65;;;;;;;12.73;70.30;98024.63;5052487;28;20049;-79
2021/05/16 08:28:24;;;;;;;2.58;0.55;;;;;;;12.98;70.02;98014.72;5049041;28;20050;-79
2021/05/16 08:30:59;;;;;;;5.75;1.02;;;;;;;12.68;68.96;97991.75;5053565;28;20055;-80
2021/05/16 08:33:29;;;;;;;3.47;0.88;;;;;;;12.99;70.15;98008.19;5015969;28;20050;-79
2021/05/16 08:35:55;;;;;;;2.58;0.80;;;;;;;13.23;68.60;98010.00;5014850;28;20042;-79
2021/05/16 08:38:22;;;;;;;3.00;0.65;;;;;;;13.53;66.30;97998.25;5015876;28;20417;-79
2021/05/16 08:40:54;;;;;;;1.95;1.00;;;;;;;13.87;66.59;98001.31;5051729;28;20049;-79
2021/05/16 08:43:21;;;;;;;3.00;0.80;;;;;;;13.62;65.88;98002.31;5031984;28;20053;-78
2021/05/16 08:45:50;;;;;;;3.20;0.98;;;;;;;14.15;64.10;98003.38;5029705;28;20128;-79
2021/05/16 08:48:20;;;;;;;2.10;0.73;;;;;;;14.46;62.50;98000.50;5030008;28;20053;-78
2021/05/16 08:50:49;;;;;;;;;;;;;;;14.67;62.81;97997.19;5035341;28;20128;-79
2021/05/16 08:53:16;;;;;;;1.88;0.55;;;;;;;14.80;60.48;97992.56;5047750;28;19920;-80
2021/05/16 08:55:42;;;;;;;2.83;0.50;;;;;;;15.09;60.17;97993.41;5036216;28;20048;-79
2021/05/16 08:58:10;;;;;;;3.05;1.10;;;;;;;14.84;59.02;97989.09;5034984;28;20501;-79
2021/05/16 09:01:41;;;;;;;1.35;0.50;;;;;;;14.62;59.93;97993.53;5035062;28;20046;-79
2021/05/16 09:04:29;;;;;;;2.90;1.00;;;;;;;14.53;59.26;97995.75;4993077;28;20060;-79
2021/05/16 09:06:56;;;;;;;4.55;0.88;;;;;;;14.19;60.08;97987.31;5019408;28;20493;-79
2021/05/16 09:09:28;;;;;;;3.58;0.82;;;;;;;13.86;63.19;98007.00;5027409;28;20054;-78
2021/05/16 09:11:56;;;;;;;5.43;0.80;;;;;;;13.38;66.98;98006.03;5034127;28;20045;-77
2021/05/16 09:14:43;;;;;;;3.17;0.95;;;;;;;12.93;70.39;98013.50;5034293;28;20477;-78
2021/05/16 09:17:21;;;;;;;4.13;1.08;;;;;;;12.67;69.48;98008.34;5015099;28;20119;-78
2021/05/16 09:20:02;;;;;;;3.08;0.88;;;;;;;12.77;70.93;97991.44;5032052;28;20054;-78
2021/05/16 09:22:49;;;;;;;5.18;1.02;;;;;;;13.50;71.21;97990.50;5051334;28;20080;-79
2021/05/16 09:25:24;;;;;;;6.22;1.38;;;;;;;14.25;68.79;97988.28;5054053;28;20412;-79
2021/05/16 09:27:53;;;;;;;6.00;0.90;;;;;;;14.56;63.44;97987.06;5055151;28;20122;-78
2021/05/16 09:30:44;;;;;;;5.25;1.30;;;;;;;14.99;63.62;97965.84;5055002;28;20538;-78
2021/05/16 09:33:13;;;;;;;4.72;0.70;;;;;;;15.17;59.66;97984.81;5020119;28;20049;-78
2021/05/16 09:35:42;;;;;;;5.87;1.17;;;;;;;15.36;63.42;97977.25;5016608;28;20042;-78
2021/05/16 09:38:12;;;;;;;5.78;0.98;;;;;;;15.27;64.22;97981.44;5034718;28;20052;-78
2021/05/16 09:40:48;;;;;;;6.72;1.00;;;;;;;15.01;64.52;97980.94;5039908;28;20095;-78
2021/05/16 09:43:20;;;;;;;5.45;1.05;;;;;;;14.74;61.84;97982.53;5033932;28;20046;-79
2021/05/16 09:45:50;;;;;;;2.00;0.70;;;;;;;14.40;64.37;97988.63;5034536;28;20394;-78
2021/05/16 09:48:19;;;;;;;4.80;1.20;;;;;;;14.06;65.76;97980.19;5033999;28;20053;-78
2021/05/16 09:51:02;;;;;;;4.40;1.73;;;;;;;14.15;67.22;97980.66;5033529;28;20049;-78
2021/05/16 09:53:30;;;;;;;7.35;1.27;;;;;;;14.25;64.69;97974.59;5031139;28;20062;-78
2021/05/16 09:56:13;;;;;;;2.40;0.82;;;;;;;14.31;61.43;97965.44;5034332;28;20045;-78
2021/05/16 09:58:42;;;;;;;1.90;0.73;;;;;;;14.81;64.19;97981.38;5034345;28;20080;-78
2021/05/16 10:01:09;;;;;;;4.82;1.13;;;;;;;15.07;61.36;97976.41;5026604;28;20179;-78
2021/05/16 10:03:36;;;;;;;4.30;1.08;;;;;;;15.75;65.97;97969.16;5034611;28;20107;-78
2021/05/16 10:06:04;;;;;;;5.13;1.00;;;;;;;16.32;59.56;97963.78;5017685;28;20048;-78
2021/05/16 10:08:30;;;;;;;3.88;1.10;;;;;;;16.41;61.68;97962.25;5014478;28;20398;-79
2021/05/16 10:10:57;;;;;;;3.75;1.20;;;;;;;16.53;56.65;97952.03;5014387;28;20049;-79
2021/05/16 10:13:25;;;;;;;4.63;1.00;;;;;;;16.83;55.37;97948.03;5026549;28;20049;-78
2021/05/16 10:15:54;;;;;;;2.75;1.00;;;;;;;17.10;56.39;97939.03;5032772;28;20570;-79
2021/05/16 10:18:22;;;;;;;3.72;0.73;;;;;;;17.05;52.83;97941.72;5034107;28;20072;-79
2021/05/16 10:20:49;;;;;;;6.07;1.13;;;;;;;16.95;52.25;97928.69;5034262;28;20049;-79
2021/05/16 10:23:29;;;;;;;5.30;2.15;;;;;;;17.25;51.32;97932.88;5034030;28;20543;-80
2021/05/16 10:25:55;;;;;;;;;;;;;;;16.87;52.26;97924.50;5026526;28;20073;-77
2021/05/16 10:28:52;;;;;;;4.05;0.82;;;;;;;16.15;51.41;97922.69;5035890;28;19920;-77
2021/05/16 10:31:53;;;;;;;6.55;0.95;;;;;;;16.13;51.46;97905.66;5045410;28;20107;-78
2021/05/16 10:34:42;;;;;;;5.63;1.98;;;;;;;16.73;52.94;97906.75;5042775;28;20136;-79
2021/05/16 10:37:53;;;;;;;1.98;0.80;;;;;;;17.33;52.85;97903.03;5048636;28;20492;-78
2021/05/16 10:40:36;;;;;;;5.65;1.33;;;;;;;17.23;50.81;97886.47;5013490;28;20085;-80
2021/05/16 10:43:24;;;;;;;3.17;0.90;;;;;;;16.88;52.15;97882.25;5014912;28;20518;-79
2021/05/16 10:45:50;;;;;;;8.02;1.20;;;;;;;17.31;49.91;97897.00;5039225;28;20124;-80
2021/05/16 10:48:17;;;;;;;2.92;0.85;;;;;;;17.51;49.50;97887.28;5048873;28;20049;-79
2021/05/16 10:50:56;;;;;;;6.32;1.30;;;;;;;17.44;50.10;97887.47;5033426;28;20049;-79
2021/05/16 10:53:30;;;;;;;2.17;0.80;;;;;;;17.41;49.39;97874.25;5033397;28;20046;-79
2021/05/16 10:56:24;;;;;;;4.30;1.23;;;;;;;17.73;48.73;97886.34;5033000;28;20497;-79
2021/05/16 10:58:55;;;;;;;6.43;1.08;;;;;;;17.61;48.04;97883.78;5034127;28;20409;-79
2021/05/16 11:01:37;;;;;;;5.55;1.38;;;;;;;17.40;48.56;97880.84;5048030;28;20041;-79
2021/05/16 11:04:09;;;;;;;3.22;0.85;;;;;;;17.29;48.83;97876.34;5052810;28;20048;-79
2021/05/16 11:06:56;;;;;;;6.20;0.85;;;;;;;17.42;47.30;97873.19;5053084;28;20047;-79
2021/05/16 11:09:34;;;;;;;5.47;1.40;;;;;;;17.32;46.29;97864.84;5053060;28;20484;-79
2021/05/16 11:12:01;;;;;;;5.60;1.63;;;;;;;17.54;48.30;97873.03;5052709;28;20091;-79
2021/05/16 11:14:32;;;;;;;9.32;1.70;;;;;;;17.85;47.68;97867.75;5032694;28;20099;-79
2021/05/16 11:17:16;;;;;;;3.03;1.02;;;;;;;17.70;45.17;97851.97;5033138;28;20076;-79
2021/05/16 11:19:42;;;;;;;4.32;0.80;;;;;;;17.47;45.24;97848.50;5033648;28;20077;-79
2021/05/16 11:22:12;;;;;;;3.70;1.17;;;;;;;17.67;44.74;97849.75;5033038;28;20050;-80
2021/05/16 11:24:47;;;;;;;6.07;0.90;;;;;;;18.07;44.35;97842.09;5034764;28;20095;-80
2021/05/16 11:27:29;;;;;;;3.65;1.10;;;;;;;18.03;44.89;97847.28;5053005;28;20114;-79
2021/05/16 11:29:57;;;;;;;3.33;0.80;;;;;;;17.61;43.59;97842.56;5035124;28;20050;-79
2021/05/16 11:32:31;;;;;;;3.30;1.05;;;;;;;17.46;45.34;97833.13;5053019;28;20053;-79
2021/05/16 11:35:13;;;;;;;3.30;0.98;;;;;;;17.49;44.79;97824.34;5052055;28;20426;-80
2021/05/16 11:37:40;;;;;;;2.28;0.82;;;;;;;18.10;45.73;97801.13;5040630;28;20058;-80
2021/05/16 11:40:32;;;;;;;4.30;1.25;;;;;;;18.67;42.80;97806.88;5046125;28;20451;-79
2021/05/16 11:43:04;;;;;;;1.95;1.08;;;;;;;18.99;43.18;97805.84;5052848;28;20106;-79
2021/05/16 11:45:33;;;;;;;6.72;1.42;;;;;;;19.38;40.90;97800.66;5035045;28;20497;-79
2021/05/16 11:47:59;;;;;;;3.63;1.05;;;;;;;19.12;41.57;97793.47;5036450;28;20060;-79
2021/05/16 11:50:42;;;;;;;2.75;0.90;;;;;;;18.41;40.55;97793.00;5052135;28;20064;-80